Time;durP1;ratioP1;P1;durP2;ratioP2;P2;SDS_P1;SDS_P2;PMS_P1;PMS_P2;Temp;Humidity;BMP_temperature;BMP_pressure;BME280_temperature;BME280_humidity;BME280_pressure;Samples;Min_cycle;Max_cycle;Signal;HPM_P1;HPM_P2
2022/02/05 00:13:22;;;;;;;3.70;3.17;;;;;;;;;;5036563;28;20915;-79
2022/02/05 00:16:12;;;;;;;6.23;3.20;;;;;;;;;;5037346;28;20390;-77
2022/02/05 00:20:08;;;;;;;3.93;3.00;;;;;;;;;;5037858;28;20466;-79
2022/02/05 00:43:08;;;;;;;4.97;3.00;;;;;;;;;;5036616;28;20405;-78
2022/02/05 00:45:38;;;;;;;2.93;2.60;;;;;;;;;;5036307;28;20399;-78
2022/02/05 00:48:05;;;;;;;3.77;2.60;;;;;;;;;;5036558;28;20413;-78
2022/02/05 00:50:35;;;;;;;4.03;3.13;;;;;;;;;;5036190;28;20462;-77
2022/02/05 00:53:14;;;;;;;4.20;2.80;;;;;;;;;;5035865;28;20973;-77
2022/02/05 00:55:44;;;;;;;3.50;2.87;;;;;;;;;;5036125;28;20909;-78
2022/02/05 00:58:10;;;;;;;4.60;3.10;;;;;;;;;;5036265;28;20404;-77
2022/02/05 01:00:37;;;;;;;3.73;2.53;;;;;;;;;;5036395;28;20458;-77
2022/02/05 01:03:04;;;;;;;2.93;2.37;;;;;;;;;;5035173;28;20510;-78
2022/02/05 01:05:30;;;;;;;3.43;2.50;;;;;;;;;;5034902;28;20407;-78
2022/02/05 01:07:57;;;;;;;2.07;1.60;;;;;;;;;;5035827;28;20418;-78
2022/02/05 01:10:26;;;;;;;2.23;1.20;;;;;;;;;;5034363;28;20526;-77
2022/02/05 01:12:57;;;;;;;2.37;1.50;;;;;;;;;;5035710;28;20957;-77
2022/02/05 01:15:28;;;;;;;2.03;1.40;;;;;;;;;;5035608;28;20573;-77
2022/02/05 01:18:00;;;;;;;2.30;1.20;;;;;;;;;;5035869;28;20767;-77
2022/02/05 01:23:15;;;;;;;5.77;1.03;;;;;;;;;;5035173;28;20386;-77
2022/02/05 01:25:47;;;;;;;2.17;1.57;;;;;;;;;;5034845;28;20399;-77
2022/02/05 01:28:18;;;;;;;1.80;0.93;;;;;;;;;;5035217;28;20383;-78
2022/02/05 01:30:49;;;;;;;3.30;1.20;;;;;;;;;;5034692;28;20926;-78
2022/02/05 01:50:00;;;;;;;2.30;1.30;;;;;;;;;;5019578;28;20391;-80
2022/02/05 01:52:34;;;;;;;2.30;1.77;;;;;;;;;;4999099;28;20444;-81
2022/02/05 01:55:16;;;;;;;1.60;1.37;;;;;;;;;;4997402;28;20398;-81
2022/02/05 02:05:35;;;;;;;2.63;1.43;;;;;;;;;;4999659;28;20893;-80
2022/02/05 02:14:31;;;;;;;1.90;1.50;;;;;;;;;;4997659;28;20495;-81
2022/02/05 02:16:43;;;;;;;1.90;1.63;;;;;;;;;;4992917;28;20539;-81
2022/02/05 02:22:11;;;;;;;3.07;2.20;;;;;;;;;;4998092;28;20424;-80
2022/02/05 02:25:49;;;;;;;1.60;1.23;;;;;;;;;;4986539;28;20503;-81
2022/02/05 02:28:00;;;;;;;2.30;1.43;;;;;;;;;;4992317;28;20462;-81
2022/02/05 02:30:30;;;;;;;1.50;1.17;;;;;;;;;;4997013;28;20528;-80
2022/02/05 02:33:15;;;;;;;1.90;1.10;;;;;;;;;;4995463;28;20409;-80
2022/02/05 02:35:45;;;;;;;1.70;1.13;;;;;;;;;;4997525;28;20488;-80
2022/02/05 02:38:15;;;;;;;2.03;1.37;;;;;;;;;;4997845;28;20456;-80
2022/02/05 02:43:15;;;;;;;1.50;1.00;;;;;;;;;;4997547;28;20396;-81
2022/02/05 02:45:44;;;;;;;1.40;1.00;;;;;;;;;;4996372;28;20397;-81
2022/02/05 02:48:10;;;;;;;1.90;1.10;;;;;;;;;;4997726;28;20400;-80
2022/02/05 02:58:53;;;;;;;1.57;1.03;;;;;;;;;;4998043;28;20424;-80
2022/02/05 03:01:21;;;;;;;1.60;1.17;;;;;;;;;;4997346;28;20460;-80
2022/02/05 03:03:47;;;;;;;1.70;1.10;;;;;;;;;;4997441;28;20956;-80
2022/02/05 03:06:13;;;;;;;1.30;0.93;;;;;;;;;;4997137;28;20412;-81
2022/02/05 03:08:43;;;;;;;1.40;0.90;;;;;;;;;;4996974;28;20404;-81
2022/02/05 03:11:09;;;;;;;1.50;1.10;;;;;;;;;;4995958;28;20428;-80
2022/02/05 03:13:35;;;;;;;1.30;0.90;;;;;;;;;;4995959;28;20405;-80
2022/02/05 03:16:01;;;;;;;1.50;1.10;;;;;;;;;;4996924;28;20408;-80
2022/02/05 03:18:44;;;;;;;1.70;1.13;;;;;;;;;;4995841;28;20488;-79
2022/02/05 03:21:10;;;;;;;1.70;1.10;;;;;;;;;;4995698;28;20475;-81
2022/02/05 03:23:36;;;;;;;1.67;1.10;;;;;;;;;;4996476;28;20423;-81
2022/02/05 03:26:02;;;;;;;1.77;1.07;;;;;;;;;;4995714;28;20829;-80
2022/02/05 03:28:29;;;;;;;1.80;1.30;;;;;;;;;;4995292;28;20433;-81
2022/02/05 03:30:55;;;;;;;2.47;2.07;;;;;;;;;;4997220;28;20483;-81
2022/02/05 03:33:22;;;;;;;1.70;1.10;;;;;;;;;;5000303;28;20907;-81
2022/02/05 03:35:48;;;;;;;2.47;1.40;;;;;;;;;;5000339;28;20848;-81
2022/02/05 03:38:14;;;;;;;1.70;1.20;;;;;;;;;;5000187;28;20466;-80
2022/02/05 03:40:40;;;;;;;3.00;1.30;;;;;;;;;;5000365;28;20463;-81
2022/02/05 03:43:06;;;;;;;1.67;1.00;;;;;;;;;;4999495;28;20397;-80
2022/02/05 03:45:33;;;;;;;1.60;1.30;;;;;;;;;;4998788;28;20780;-80
2022/02/05 03:47:59;;;;;;;2.00;1.30;;;;;;;;;;4999240;28;20393;-81
2022/02/05 03:50:25;;;;;;;1.60;1.10;;;;;;;;;;4999938;28;21235;-80
2022/02/05 03:52:51;;;;;;;2.10;1.07;;;;;;;;;;5000806;28;20404;-80
2022/02/05 03:55:17;;;;;;;1.53;1.30;;;;;;;;;;4997462;28;21113;-79
2022/02/05 03:57:43;;;;;;;1.80;1.10;;;;;;;;;;4992572;28;20420;-80
2022/02/05 04:00:10;;;;;;;2.83;1.27;;;;;;;;;;4980471;28;20497;-79
2022/02/05 04:02:37;;;;;;;2.73;1.30;;;;;;;;;;4997606;28;20452;-79
2022/02/05 04:05:03;;;;;;;2.20;1.27;;;;;;;;;;4998044;28;20408;-80
2022/02/05 04:07:32;;;;;;;3.63;1.40;;;;;;;;;;4999025;28;20421;-80
2022/02/05 04:10:02;;;;;;;3.67;1.33;;;;;;;;;;4999779;28;20416;-80
2022/02/05 04:17:59;;;;;;;1.80;1.10;;;;;;;;;;5000782;28;20770;-80
2022/02/05 04:20:25;;;;;;;3.33;1.60;;;;;;;;;;5002040;28;20507;-80
2022/02/05 04:22:51;;;;;;;3.53;1.10;;;;;;;;;;5000494;28;20407;-80
2022/02/05 04:25:17;;;;;;;5.23;2.07;;;;;;;;;;5000307;28;20417;-81
2022/02/05 04:27:46;;;;;;;2.30;1.40;;;;;;;;;;5000770;28;20409;-81
2022/02/05 04:30:13;;;;;;;1.60;1.30;;;;;;;;;;5007779;28;20443;-80
2022/02/05 04:32:40;;;;;;;2.90;1.57;;;;;;;;;;4999375;28;20423;-80
2022/02/05 04:35:06;;;;;;;1.87;1.30;;;;;;;;;;5004243;28;20413;-81
2022/02/05 04:37:34;;;;;;;1.90;1.40;;;;;;;;;;5001603;28;20458;-81
2022/02/05 04:42:40;;;;;;;2.23;1.30;;;;;;;;;;4998823;28;20420;-81
2022/02/05 04:45:32;;;;;;;4.13;1.17;;;;;;;;;;4984192;28;20816;-81
2022/02/05 04:50:37;;;;;;;1.90;1.20;;;;;;;;;;4998008;28;20456;-80
2022/02/05 05:04:08;;;;;;;2.37;1.30;;;;;;;;;;4979320;28;20428;-79
2022/02/05 05:09:29;;;;;;;2.20;1.60;;;;;;;;;;5002908;28;20447;-80
2022/02/05 05:12:19;;;;;;;1.87;1.40;;;;;;;;;;4999636;28;20416;-80
2022/02/05 05:20:15;;;;;;;2.03;1.60;;;;;;;;;;4999171;28;20483;-81
2022/02/05 05:22:41;;;;;;;2.83;1.80;;;;;;;;;;4999265;28;20417;-80
2022/02/05 05:25:07;;;;;;;3.50;2.17;;;;;;;;;;4997782;28;20412;-80
2022/02/05 05:27:33;;;;;;;2.53;1.80;;;;;;;;;;4997363;28;20452;-80
2022/02/05 05:30:00;;;;;;;2.73;2.10;;;;;;;;;;4998154;28;20788;-80
2022/02/05 05:32:26;;;;;;;2.97;2.43;;;;;;;;;;4998489;28;20417;-80
2022/02/05 05:34:52;;;;;;;3.47;2.30;;;;;;;;;;4998651;28;20435;-80
2022/02/05 05:37:20;;;;;;;3.57;2.17;;;;;;;;;;4997463;28;20474;-81
2022/02/05 05:39:48;;;;;;;2.23;1.97;;;;;;;;;;4998221;28;20486;-81
2022/02/05 05:42:20;;;;;;;4.90;2.17;;;;;;;;;;4998176;28;20431;-81
2022/02/05 05:45:00;;;;;;;4.23;2.63;;;;;;;;;;4997102;28;20400;-81
2022/02/05 05:52:19;;;;;;;2.90;2.10;;;;;;;;;;4998561;28;20439;-81
2022/02/05 05:54:45;;;;;;;4.80;2.20;;;;;;;;;;4996589;28;20451;-81
2022/02/05 05:57:11;;;;;;;4.10;2.60;;;;;;;;;;4998451;28;20783;-80
2022/02/05 05:59:40;;;;;;;2.50;2.23;;;;;;;;;;4998508;28;20476;-81
2022/02/05 06:02:07;;;;;;;4.20;2.53;;;;;;;;;;4998938;28;20944;-78
2022/02/05 06:04:33;;;;;;;3.17;2.60;;;;;;;;;;4999900;28;20454;-80
2022/02/05 06:06:59;;;;;;;3.37;2.40;;;;;;;;;;4996899;28;20451;-81
2022/02/05 06:09:25;;;;;;;3.80;2.70;;;;;;;;;;4997751;28;20496;-80
2022/02/05 06:11:51;;;;;;;3.37;2.17;;;;;;;;;;4996281;28;20537;-80
2022/02/05 06:14:22;;;;;;;3.63;3.00;;;;;;;;;;4996647;28;20490;-81
2022/02/05 06:16:52;;;;;;;2.70;2.37;;;;;;;;;;4998493;28;20427;-80
2022/02/05 06:19:20;;;;;;;3.03;2.53;;;;;;;;;;4996066;28;20421;-81
2022/02/05 06:21:46;;;;;;;3.30;2.17;;;;;;;;;;4997555;28;20496;-80
2022/02/05 06:24:13;;;;;;;5.40;2.77;;;;;;;;;;4996896;28;20424;-80
2022/02/05 06:26:39;;;;;;;3.63;2.80;;;;;;;;;;4996777;28;20423;-80
2022/02/05 06:29:05;;;;;;;3.23;2.50;;;;;;;;;;4997340;28;20420;-80
2022/02/05 06:31:31;;;;;;;2.37;2.00;;;;;;;;;;4998026;28;20515;-81
2022/02/05 06:33:57;;;;;;;2.97;1.80;;;;;;;;;;4996600;28;20491;-81
2022/02/05 06:36:23;;;;;;;3.70;2.27;;;;;;;;;;4997641;28;20405;-81
2022/02/05 06:38:49;;;;;;;2.87;2.30;;;;;;;;;;4997788;28;20452;-80
2022/02/05 06:41:16;;;;;;;5.03;2.40;;;;;;;;;;4997892;28;20479;-81
2022/02/05 06:43:42;;;;;;;4.10;2.23;;;;;;;;;;4998168;28;20444;-81
2022/02/05 06:46:08;;;;;;;4.03;2.30;;;;;;;;;;4997616;28;20407;-80
2022/02/05 06:48:34;;;;;;;2.70;2.33;;;;;;;;;;4996268;28;20901;-81
2022/02/05 06:51:00;;;;;;;3.10;2.70;;;;;;;;;;4997833;28;20436;-80
2022/02/05 06:53:26;;;;;;;2.30;2.03;;;;;;;;;;4998069;28;20769;-81
2022/02/05 06:55:52;;;;;;;3.17;2.70;;;;;;;;;;4998586;28;20409;-80
2022/02/05 06:58:18;;;;;;;5.90;2.57;;;;;;;;;;4996595;28;20416;-81
2022/02/05 07:00:44;;;;;;;4.07;3.17;;;;;;;;;;4996755;28;20475;-81
2022/02/05 07:03:16;;;;;;;3.00;2.37;;;;;;;;;;4997847;28;20408;-80
2022/02/05 07:05:42;;;;;;;5.37;3.07;;;;;;;;;;4998317;28;20436;-80
2022/02/05 07:08:08;;;;;;;3.30;2.43;;;;;;;;;;5001054;28;20416;-81
2022/02/05 07:10:34;;;;;;;3.37;2.27;;;;;;;;;;5011604;28;20508;-80
2022/02/05 07:15:34;;;;;;;3.10;2.50;;;;;;;;;;5010627;28;20445;-80
2022/02/05 07:18:22;;;;;;;3.30;2.70;;;;;;;;;;5017086;28;20412;-80
2022/02/05 07:21:04;;;;;;;4.83;2.30;;;;;;;;;;5014689;28;20468;-80
2022/02/05 07:29:14;;;;;;;2.60;2.40;;;;;;;;;;5011294;28;20407;-80
2022/02/05 07:31:54;;;;;;;3.87;2.60;;;;;;;;;;5007251;28;20440;-80
2022/02/05 07:34:21;;;;;;;3.10;1.90;;;;;;;;;;5001742;28;20779;-80
2022/02/05 07:36:48;;;;;;;3.47;2.77;;;;;;;;;;5000922;28;20423;-80
2022/02/05 07:39:15;;;;;;;2.53;2.20;;;;;;;;;;5000836;28;20405;-80
2022/02/05 07:41:42;;;;;;;7.17;2.50;;;;;;;;;;5030282;23;20995;-80
2022/02/05 07:44:10;;;;;;;3.80;2.27;;;;;;;;;;5020212;28;20412;-81
2022/02/05 07:46:37;;;;;;;6.77;2.70;;;;;;;;;;5021386;28;20392;-80
2022/02/05 07:49:03;;;;;;;5.10;2.50;;;;;;;;;;5021354;28;20455;-80
2022/02/05 07:51:29;;;;;;;2.23;1.80;;;;;;;;;;5020820;28;20415;-80
2022/02/05 07:53:55;;;;;;;3.70;2.50;;;;;;;;;;5020358;28;20486;-77
2022/02/05 07:56:21;;;;;;;3.53;2.27;;;;;;;;;;5020581;28;20975;-77
2022/02/05 07:58:47;;;;;;;4.10;2.63;;;;;;;;;;5020868;28;20402;-79
2022/02/05 08:01:13;;;;;;;3.10;2.10;;;;;;;;;;5022944;28;20987;-79
2022/02/05 08:03:39;;;;;;;6.00;2.27;;;;;;;;;;5021247;28;20443;-79
2022/02/05 08:06:14;;;;;;;3.20;2.10;;;;;;;;;;5020101;28;20408;-79
2022/02/05 08:08:40;;;;;;;3.60;2.10;;;;;;;;;;5021259;28;20399;-78
2022/02/05 08:11:10;;;;;;;4.10;3.47;;;;;;;;;;5020756;28;20455;-78
2022/02/05 08:13:36;;;;;;;8.43;2.90;;;;;;;;;;5020808;28;20406;-80
2022/02/05 08:18:47;;;;;;;4.00;2.40;;;;;;;;;;5021552;28;20387;-80
2022/02/05 08:21:13;;;;;;;3.13;1.93;;;;;;;;;;5021085;28;20467;-80
2022/02/05 08:23:39;;;;;;;5.43;2.33;;;;;;;;;;5021507;28;20423;-80
2022/02/05 08:26:05;;;;;;;3.53;2.27;;;;;;;;;;5022140;28;20408;-80
2022/02/05 08:28:33;;;;;;;3.37;2.50;;;;;;;;;;5021534;28;20880;-80
2022/02/05 08:30:59;;;;;;;4.90;2.70;;;;;;;;;;5021118;28;20515;-79
2022/02/05 08:33:25;;;;;;;6.43;2.10;;;;;;;;;;5026915;28;20420;-80
2022/02/05 08:35:51;;;;;;;3.23;2.10;;;;;;;;;;5026140;28;20423;-80
2022/02/05 08:38:18;;;;;;;2.23;1.83;;;;;;;;;;5026243;28;20442;-80
2022/02/05 08:40:44;;;;;;;3.60;2.10;;;;;;;;;;5017848;28;20624;-80
2022/02/05 08:43:11;;;;;;;3.83;2.10;;;;;;;;;;5018284;28;20423;-79
2022/02/05 08:45:37;;;;;;;3.20;1.93;;;;;;;;;;5018069;28;20439;-80
2022/02/05 08:48:03;;;;;;;5.47;2.50;;;;;;;;;;5019977;28;20446;-79
2022/02/05 08:50:29;;;;;;;4.63;1.97;;;;;;;;;;5026837;28;20487;-78
2022/02/05 08:52:55;;;;;;;3.70;1.90;;;;;;;;;;5025867;28;20431;-80
2022/02/05 08:55:22;;;;;;;6.07;2.37;;;;;;;;;;5021585;28;20510;-80
2022/02/05 08:57:50;;;;;;;4.67;2.07;;;;;;;;;;5021854;28;20427;-79
2022/02/05 09:00:23;;;;;;;4.37;2.03;;;;;;;;;;5024340;28;20461;-79
2022/02/05 09:05:39;;;;;;;4.77;2.37;;;;;;;;;;5019991;28;20427;-80
2022/02/05 09:08:18;;;;;;;4.27;1.90;;;;;;;;;;5020158;28;20880;-79
2022/02/05 09:11:04;;;;;;;3.60;1.70;;;;;;;;;;5019097;28;20435;-80
2022/02/05 09:16:10;;;;;;;3.73;1.93;;;;;;;;;;5020398;28;20437;-79
2022/02/05 09:18:36;;;;;;;4.80;2.13;;;;;;;;;;5019445;28;20400;-80
2022/02/05 09:21:03;;;;;;;3.70;2.00;;;;;;;;;;5018850;28;20467;-79
2022/02/05 09:23:29;;;;;;;3.47;2.50;;;;;;;;;;5019097;28;20415;-79
2022/02/05 09:25:57;;;;;;;4.47;2.03;;;;;;;;;;5018574;28;20422;-79
2022/02/05 09:28:23;;;;;;;5.10;2.17;;;;;;;;;;5019671;28;20404;-79
2022/02/05 09:31:24;;;;;;;4.13;2.30;;;;;;;;;;5019797;28;20518;-79
2022/02/05 09:33:47;;;;;;;4.00;1.63;;;;;;;;;;5017149;28;20426;-80
2022/02/05 09:36:14;;;;;;;3.63;1.70;;;;;;;;;;5020485;28;20253;-80
2022/02/05 09:38:40;;;;;;;3.07;1.50;;;;;;;;;;5013550;28;20420;-80
2022/02/05 09:41:06;;;;;;;6.13;2.30;;;;;;;;;;5013183;28;20467;-80
2022/02/05 09:43:32;;;;;;;2.80;2.43;;;;;;;;;;5020700;28;20797;-80
2022/02/05 09:45:59;;;;;;;3.37;2.27;;;;;;;;;;5019970;28;20954;-80
2022/02/05 09:48:28;;;;;;;4.40;1.90;;;;;;;;;;5020411;28;20399;-80
2022/02/05 09:50:55;;;;;;;4.03;1.50;;;;;;;;;;5020337;28;20435;-80
2022/02/05 09:53:21;;;;;;;4.40;1.83;;;;;;;;;;5019967;28;20423;-80
2022/02/05 09:55:49;;;;;;;4.37;1.80;;;;;;;;;;5019730;28;20499;-80
2022/02/05 09:58:15;;;;;;;3.20;2.30;;;;;;;;;;5021362;28;20474;-79
2022/02/05 10:00:58;;;;;;;3.30;1.43;;;;;;;;;;5021136;28;20451;-79
2022/02/05 10:03:25;;;;;;;2.50;1.80;;;;;;;;;;5022433;28;20960;-79
2022/02/05 10:06:13;;;;;;;3.20;1.40;;;;;;;;;;5022004;28;20432;-79
2022/02/05 10:08:39;;;;;;;4.70;1.67;;;;;;;;;;5021208;28;20559;-79
2022/02/05 10:11:06;;;;;;;4.13;2.17;;;;;;;;;;5021588;28;20973;-79
2022/02/05 10:13:32;;;;;;;5.93;2.00;;;;;;;;;;5022431;28;20414;-79
2022/02/05 10:15:59;;;;;;;5.90;1.70;;;;;;;;;;5021562;28;20412;-79
2022/02/05 10:18:32;;;;;;;7.20;1.70;;;;;;;;;;5022659;28;20412;-79
2022/02/05 10:20:59;;;;;;;2.73;1.40;;;;;;;;;;5021800;28;20532;-79
2022/02/05 10:23:26;;;;;;;7.63;2.10;;;;;;;;;;5021965;28;20491;-79
2022/02/05 10:25:53;;;;;;;3.20;1.70;;;;;;;;;;5022308;28;20483;-79
2022/02/05 10:28:20;;;;;;;2.43;1.80;;;;;;;;;;5021866;28;20404;-79
2022/02/05 10:30:48;;;;;;;2.57;1.70;;;;;;;;;;5032580;28;20423;-78
2022/02/05 10:33:22;;;;;;;2.40;1.67;;;;;;;;;;5020723;28;20408;-79
2022/02/05 10:35:57;;;;;;;4.10;1.50;;;;;;;;;;5021896;28;20419;-79
2022/02/05 10:43:52;;;;;;;4.53;1.90;;;;;;;;;;5001793;28;20473;-79
2022/02/05 10:46:18;;;;;;;2.90;1.30;;;;;;;;;;5001139;28;20408;-79
2022/02/05 10:48:44;;;;;;;4.57;2.20;;;;;;;;;;5001932;28;20507;-79
2022/02/05 10:51:12;;;;;;;5.83;1.63;;;;;;;;;;5001922;28;20431;-79
2022/02/05 10:53:50;;;;;;;9.03;1.47;;;;;;;;;;4999322;28;20411;-78
2022/02/05 10:56:32;;;;;;;8.60;2.23;;;;;;;;;;4998001;28;20424;-79
2022/02/05 11:07:28;;;;;;;4.43;1.57;;;;;;;;;;5008819;28;20958;-79
2022/02/05 11:09:57;;;;;;;7.10;1.60;;;;;;;;;;5021658;28;20447;-78
2022/02/05 11:20:08;;;;;;;2.67;1.47;;;;;;;;;;5003322;28;20474;-78
2022/02/05 11:22:36;;;;;;;4.90;1.70;;;;;;;;;;5003656;28;20419;-79
2022/02/05 11:25:03;;;;;;;2.80;1.10;;;;;;;;;;5006359;28;20412;-78
2022/02/05 11:27:29;;;;;;;1.70;1.23;;;;;;;;;;5040334;28;20911;-79
2022/02/05 11:29:55;;;;;;;2.23;1.70;;;;;;;;;;5024520;28;20471;-79
2022/02/05 11:32:26;;;;;;;4.60;1.80;;;;;;;;;;5023981;28;20431;-79
2022/02/05 11:35:06;;;;;;;2.93;1.30;;;;;;;;;;5021209;28;20910;-79
2022/02/05 11:37:32;;;;;;;2.93;1.60;;;;;;;;;;5020960;28;20410;-79
2022/02/05 11:39:58;;;;;;;2.37;1.17;;;;;;;;;;5041619;28;20923;-79
2022/02/05 11:42:24;;;;;;;6.13;1.90;;;;;;;;;;5042829;28;20910;-79
2022/02/05 11:45:02;;;;;;;3.47;1.77;;;;;;;;;;5042827;28;20438;-79
2022/02/05 11:47:29;;;;;;;2.17;1.30;;;;;;;;;;5048357;28;20406;-79
2022/02/05 11:49:56;;;;;;;3.27;1.60;;;;;;;;;;5047325;28;20406;-79
2022/02/05 11:52:39;;;;;;;2.47;1.73;;;;;;;;;;5043291;28;20828;-79
2022/02/05 11:55:12;;;;;;;4.20;1.80;;;;;;;;;;5045342;28;20910;-79
2022/02/05 11:57:48;;;;;;;2.10;1.57;;;;;;;;;;5045284;28;20418;-79
2022/02/05 12:00:24;;;;;;;6.60;2.13;;;;;;;;;;5043191;28;20830;-79
2022/02/05 12:05:25;;;;;;;2.40;1.27;;;;;;;;;;5028817;28;20414;-80
2022/02/05 12:08:06;;;;;;;3.60;1.50;;;;;;;;;;5022244;28;20407;-79
2022/02/05 12:10:33;;;;;;;2.87;1.70;;;;;;;;;;5022188;28;20422;-79
2022/02/05 12:13:17;;;;;;;3.17;1.30;;;;;;;;;;5022899;28;20446;-80
2022/02/05 12:15:44;;;;;;;2.43;1.57;;;;;;;;;;5020711;28;20502;-79
2022/02/05 12:25:57;;;;;;;4.60;1.73;;;;;;;;;;5021542;28;20407;-80
2022/02/05 12:28:29;;;;;;;2.23;1.60;;;;;;;;;;5022288;28;20896;-79
2022/02/05 12:30:56;;;;;;;2.83;1.70;;;;;;;;;;5019519;28;20435;-79
2022/02/05 12:33:22;;;;;;;7.30;1.60;;;;;;;;;;5021344;28;20449;-79
2022/02/05 12:35:52;;;;;;;2.47;1.70;;;;;;;;;;5019897;28;20411;-79
2022/02/05 12:38:19;;;;;;;3.70;1.57;;;;;;;;;;5020303;28;20442;-79
2022/02/05 12:40:49;;;;;;;5.73;1.80;;;;;;;;;;5022181;28;20480;-79
2022/02/05 12:43:17;;;;;;;5.03;1.60;;;;;;;;;;5031985;28;20424;-79
2022/02/05 12:46:07;;;;;;;3.83;2.10;;;;;;;;;;5003840;28;20428;-78
2022/02/05 12:48:34;;;;;;;4.93;1.60;;;;;;;;;;5016535;28;20423;-79
2022/02/05 12:51:00;;;;;;;3.50;1.87;;;;;;;;;;5021198;28;20436;-80
2022/02/05 12:53:31;;;;;;;5.30;1.93;;;;;;;;;;5020905;28;20419;-79
2022/02/05 12:56:09;;;;;;;6.93;1.63;;;;;;;;;;5022005;28;20418;-78
2022/02/05 12:58:51;;;;;;;3.10;1.80;;;;;;;;;;5022660;28;20403;-79
2022/02/05 13:01:17;;;;;;;5.17;1.37;;;;;;;;;;5022740;28;20463;-78
2022/02/05 13:03:43;;;;;;;4.70;1.50;;;;;;;;;;5022995;28;20400;-79
2022/02/05 13:06:19;;;;;;;3.53;1.30;;;;;;;;;;5022118;28;20392;-79
2022/02/05 13:08:46;;;;;;;8.00;2.40;;;;;;;;;;5022015;28;20424;-79
2022/02/05 13:11:12;;;;;;;4.67;1.80;;;;;;;;;;5022455;28;20478;-79
2022/02/05 13:13:48;;;;;;;4.50;3.00;;;;;;;;;;5020858;28;20416;-79
2022/02/05 13:16:14;;;;;;;2.70;1.40;;;;;;;;;;5022196;28;20399;-79
2022/02/05 13:18:50;;;;;;;3.73;2.00;;;;;;;;;;5021528;28;20510;-79
2022/02/05 13:26:57;;;;;;;7.17;1.60;;;;;;;;;;5022403;28;20484;-80
2022/02/05 13:29:38;;;;;;;3.00;1.83;;;;;;;;;;5021639;28;20423;-80
2022/02/05 13:34:50;;;;;;;5.33;2.00;;;;;;;;;;5021217;28;20379;-80
2022/02/05 13:37:22;;;;;;;3.13;1.67;;;;;;;;;;5021746;28;20439;-79
2022/02/05 13:40:01;;;;;;;2.53;1.27;;;;;;;;;;5020405;28;20459;-78
2022/02/05 13:42:30;;;;;;;12.73;1.77;;;;;;;;;;5021617;28;20494;-80
2022/02/05 13:44:59;;;;;;;3.90;1.20;;;;;;;;;;5023567;28;20407;-79
2022/02/05 13:47:27;;;;;;;5.40;1.77;;;;;;;;;;5025440;28;20493;-80
2022/02/05 13:49:59;;;;;;;6.13;1.40;;;;;;;;;;5030028;28;20421;-80
2022/02/05 13:52:31;;;;;;;4.00;2.00;;;;;;;;;;5021846;28;20434;-80
2022/02/05 13:54:57;;;;;;;5.17;2.27;;;;;;;;;;5018940;28;20483;-80
2022/02/05 13:57:23;;;;;;;2.30;1.43;;;;;;;;;;5020197;28;20408;-79
2022/02/05 13:59:56;;;;;;;2.03;1.60;;;;;;;;;;5020497;28;20458;-79
2022/02/05 14:02:22;;;;;;;3.97;1.93;;;;;;;;;;5018752;28;20444;-78
2022/02/05 14:05:08;;;;;;;4.57;1.87;;;;;;;;;;5019879;28;20415;-79
2022/02/05 14:07:44;;;;;;;5.40;2.23;;;;;;;;;;5000773;28;20407;-79
2022/02/05 14:10:11;;;;;;;2.87;1.50;;;;;;;;;;5005364;28;20494;-79
2022/02/05 14:12:46;;;;;;;6.60;2.47;;;;;;;;;;5021258;28;20440;-79
2022/02/05 14:15:13;;;;;;;4.13;1.30;;;;;;;;;;5022303;28;20418;-79
2022/02/05 14:17:39;;;;;;;4.37;1.83;;;;;;;;;;5025574;28;20455;-78
2022/02/05 14:20:12;;;;;;;2.60;1.43;;;;;;;;;;5022226;28;20451;-78
2022/02/05 14:22:41;;;;;;;3.37;1.77;;;;;;;;;;5018910;28;20444;-78
2022/02/05 14:25:12;;;;;;;3.83;1.53;;;;;;;;;;5018589;28;20416;-78
2022/02/05 14:27:42;;;;;;;2.80;2.07;;;;;;;;;;5018980;28;20423;-79
2022/02/05 14:30:12;;;;;;;2.97;1.60;;;;;;;;;;5016823;28;20912;-78
2022/02/05 14:32:51;;;;;;;5.37;2.20;;;;;;;;;;5018226;28;20462;-78
2022/02/05 14:40:47;;;;;;;2.90;1.40;;;;;;;;;;5018402;28;20478;-79
2022/02/05 14:43:16;;;;;;;1.90;1.33;;;;;;;;;;5020651;28;20787;-79
2022/02/05 14:45:42;;;;;;;5.10;2.33;;;;;;;;;;5026061;28;20438;-80
2022/02/05 14:48:08;;;;;;;2.87;1.60;;;;;;;;;;5023147;28;20415;-80
2022/02/05 14:50:35;;;;;;;2.80;1.50;;;;;;;;;;5019441;28;20431;-80
2022/02/05 14:53:01;;;;;;;2.77;1.40;;;;;;;;;;5019671;28;20788;-79
2022/02/05 14:55:27;;;;;;;6.40;1.90;;;;;;;;;;5021268;28;20434;-79
2022/02/05 14:57:54;;;;;;;4.70;1.37;;;;;;;;;;5022642;28;20490;-79
2022/02/05 15:00:20;;;;;;;3.03;1.60;;;;;;;;;;5020785;28;20485;-79
2022/02/05 15:02:46;;;;;;;2.80;1.30;;;;;;;;;;5021557;28;20522;-79
2022/02/05 15:05:14;;;;;;;4.00;1.40;;;;;;;;;;5021269;28;20431;-79
2022/02/05 15:07:40;;;;;;;3.93;2.30;;;;;;;;;;5020989;28;20408;-79
2022/02/05 15:10:07;;;;;;;1.80;1.20;;;;;;;;;;5021320;28;20556;-79
2022/02/05 15:12:33;;;;;;;2.63;1.63;;;;;;;;;;5020955;28;20450;-79
2022/02/05 15:15:00;;;;;;;5.13;1.63;;;;;;;;;;5018662;28;21020;-79
2022/02/05 15:17:26;;;;;;;2.73;1.57;;;;;;;;;;5032218;28;20422;-79
2022/02/05 15:19:52;;;;;;;4.33;1.50;;;;;;;;;;5025901;28;20452;-80
2022/02/05 15:22:18;;;;;;;2.50;1.60;;;;;;;;;;5020899;28;20927;-79
2022/02/05 15:24:45;;;;;;;2.50;1.70;;;;;;;;;;5019621;28;20443;-79
2022/02/05 15:27:11;;;;;;;3.20;1.47;;;;;;;;;;5023373;28;20415;-80
2022/02/05 15:29:37;;;;;;;2.03;1.57;;;;;;;;;;5023972;28;20415;-79
2022/02/05 15:32:03;;;;;;;3.17;1.50;;;;;;;;;;5022690;28;20940;-78
2022/02/05 15:34:30;;;;;;;4.63;1.73;;;;;;;;;;5021115;28;20507;-77
2022/02/05 15:37:04;;;;;;;2.03;1.60;;;;;;;;;;5020692;28;20429;-78
2022/02/05 15:44:47;;;;;;;2.00;1.50;;;;;;;;;;5019886;28;20800;-79
2022/02/05 15:47:14;;;;;;;2.53;1.47;;;;;;;;;;5021070;28;20438;-79
2022/02/05 15:49:40;;;;;;;4.30;1.90;;;;;;;;;;5025025;28;20454;-79
2022/02/05 15:52:06;;;;;;;3.83;1.47;;;;;;;;;;5018476;28;20443;-80
2022/02/05 15:54:32;;;;;;;2.10;1.23;;;;;;;;;;5025047;28;20426;-79
2022/02/05 15:58:03;;;;;;;2.13;1.47;;;;;;;;;;5024113;28;20790;-79
2022/02/05 16:00:04;;;;;;;3.20;1.50;;;;;;;;;;5020293;28;20525;-79
2022/02/05 16:02:30;;;;;;;3.87;2.00;;;;;;;;;;5023568;28;20458;-78
2022/02/05 16:04:56;;;;;;;3.50;1.73;;;;;;;;;;5024650;28;20415;-79
2022/02/05 16:07:22;;;;;;;4.60;2.30;;;;;;;;;;5032295;28;20396;-79
2022/02/05 16:09:49;;;;;;;3.00;1.87;;;;;;;;;;5033265;28;20431;-79
2022/02/05 16:12:15;;;;;;;2.13;1.50;;;;;;;;;;5026862;28;20462;-78
2022/02/05 16:14:41;;;;;;;2.27;1.60;;;;;;;;;;5028635;28;20518;-79
2022/02/05 16:17:08;;;;;;;2.47;1.63;;;;;;;;;;5029789;28;20506;-79
2022/02/05 16:19:34;;;;;;;2.43;1.70;;;;;;;;;;5008693;28;20432;-79
2022/02/05 16:22:00;;;;;;;2.97;1.77;;;;;;;;;;5029172;28;20500;-78
2022/02/05 16:24:26;;;;;;;2.23;1.47;;;;;;;;;;5027084;28;20654;-78
2022/02/05 16:26:52;;;;;;;3.17;1.80;;;;;;;;;;5021199;28;20462;-79
2022/02/05 16:29:25;;;;;;;3.40;2.00;;;;;;;;;;5020446;28;20439;-79
2022/02/05 16:31:51;;;;;;;2.43;1.90;;;;;;;;;;5020738;28;20473;-78
2022/02/05 16:34:18;;;;;;;5.67;3.13;;;;;;;;;;5020826;28;20408;-79
2022/02/05 16:36:47;;;;;;;7.10;2.33;;;;;;;;;;5021177;28;20411;-78
2022/02/05 16:39:15;;;;;;;6.13;2.40;;;;;;;;;;5020372;28;20826;-78
2022/02/05 16:41:41;;;;;;;6.40;2.20;;;;;;;;;;5034302;28;20539;-78
2022/02/05 16:44:07;;;;;;;4.60;1.67;;;;;;;;;;5023840;28;20428;-78
2022/02/05 16:46:38;;;;;;;6.20;2.40;;;;;;;;;;5031197;28;20602;-77
2022/02/05 16:49:05;;;;;;;4.50;2.10;;;;;;;;;;5034080;28;20903;-77
2022/02/05 16:51:32;;;;;;;4.73;2.40;;;;;;;;;;5020719;28;20451;-78
2022/02/05 16:53:58;;;;;;;11.37;2.63;;;;;;;;;;5020727;28;20442;-79
2022/02/05 16:56:29;;;;;;;4.43;2.40;;;;;;;;;;5021251;28;20454;-79
2022/02/05 16:58:55;;;;;;;4.83;2.37;;;;;;;;;;5016495;28;20424;-79
2022/02/05 17:01:22;;;;;;;5.13;2.70;;;;;;;;;;5020964;28;20465;-78
2022/02/05 17:03:48;;;;;;;9.30;2.57;;;;;;;;;;5019720;28;20514;-78
2022/02/05 17:06:14;;;;;;;3.67;2.40;;;;;;;;;;5023096;28;20450;-77
2022/02/05 17:08:40;;;;;;;3.67;2.60;;;;;;;;;;5023925;28;20431;-77
2022/02/05 17:11:07;;;;;;;4.00;2.50;;;;;;;;;;5024337;28;20477;-77
2022/02/05 17:13:35;;;;;;;4.73;2.20;;;;;;;;;;5019168;28;20423;-78
2022/02/05 17:16:01;;;;;;;4.17;2.63;;;;;;;;;;5014753;28;20475;-78
2022/02/05 17:18:29;;;;;;;6.53;3.80;;;;;;;;;;5015769;28;20510;-78
2022/02/05 17:20:57;;;;;;;5.00;2.80;;;;;;;;;;5013546;28;20485;-78
2022/02/05 17:23:30;;;;;;;8.83;3.50;;;;;;;;;;5015105;28;20430;-78
2022/02/05 17:25:58;;;;;;;5.80;3.23;;;;;;;;;;5016571;28;20404;-79
2022/02/05 17:28:27;;;;;;;5.53;2.70;;;;;;;;;;5016905;28;20428;-78
2022/02/05 17:30:56;;;;;;;4.60;2.80;;;;;;;;;;5018068;28;20479;-79
2022/02/05 17:33:23;;;;;;;7.87;3.20;;;;;;;;;;5018097;28;20416;-78
2022/02/05 17:35:51;;;;;;;7.00;3.20;;;;;;;;;;5019777;28;20418;-79
2022/02/05 17:38:22;;;;;;;4.97;3.33;;;;;;;;;;5019513;28;20410;-77
2022/02/05 17:40:48;;;;;;;4.67;3.40;;;;;;;;;;5021400;28;20545;-78
2022/02/05 17:43:16;;;;;;;4.17;3.07;;;;;;;;;;5025332;28;20480;-78
2022/02/05 17:45:42;;;;;;;6.73;3.90;;;;;;;;;;5020162;28;20764;-79
2022/02/05 17:48:09;;;;;;;7.00;4.30;;;;;;;;;;5020030;28;20415;-78
2022/02/05 17:50:35;;;;;;;8.20;3.40;;;;;;;;;;5074098;23;20543;-81
2022/02/05 17:53:01;;;;;;;9.23;4.57;;;;;;;;;;5031702;28;20419;-81
2022/02/05 17:55:27;;;;;;;8.03;3.87;;;;;;;;;;5040066;28;20399;-81
2022/02/05 17:57:56;;;;;;;5.30;3.87;;;;;;;;;;5040471;28;20423;-79